sensor_id;sensor_type;location;lat;lon;timestamp;pressure;altitude;pressure_sealevel;temperature;humidity
56241;BME280;42155;53.096;23.226;2022-07-24T00:01:15;99791.38;;;21.05;78.55
56241;BME280;42155;53.096;23.226;2022-07-24T00:03:15;99781.09;;;20.94;78.95
56241;BME280;42155;53.096;23.226;2022-07-24T00:05:16;99766.44;;;20.75;78.59
56241;BME280;42155;53.096;23.226;2022-07-24T00:07:16;99800.19;;;20.92;78.48
56241;BME280;42155;53.096;23.226;2022-07-24T00:09:16;99789.41;;;20.92;77.88
56241;BME280;42155;53.096;23.226;2022-07-24T00:11:17;99802.31;;;20.97;77.89
56241;BME280;42155;53.096;23.226;2022-07-24T00:13:17;99793.38;;;20.96;77.66
56241;BME280;42155;53.096;23.226;2022-07-24T00:15:18;99795.63;;;20.93;77.36
56241;BME280;42155;53.096;23.226;2022-07-24T00:17:18;99791.03;;;20.87;77.08
56241;BME280;42155;53.096;23.226;2022-07-24T00:19:18;99783.47;;;20.75;77.31
56241;BME280;42155;53.096;23.226;2022-07-24T00:21:19;99794.31;;;20.82;76.71
56241;BME280;42155;53.096;23.226;2022-07-24T00:23:19;99769.69;;;20.70;76.55
56241;BME280;42155;53.096;23.226;2022-07-24T00:25:20;99788.72;;;20.83;76.30
56241;BME280;42155;53.096;23.226;2022-07-24T00:27:20;99780.63;;;20.83;76.46
56241;BME280;42155;53.096;23.226;2022-07-24T00:29:20;99762.78;;;20.61;76.07
56241;BME280;42155;53.096;23.226;2022-07-24T00:31:21;99800.03;;;20.72;76.11
56241;BME280;42155;53.096;23.226;2022-07-24T00:33:21;99790.66;;;20.68;76.32
56241;BME280;42155;53.096;23.226;2022-07-24T00:35:22;99786.88;;;20.63;75.82
56241;BME280;42155;53.096;23.226;2022-07-24T00:37:22;99805.03;;;20.75;75.83
56241;BME280;42155;53.096;23.226;2022-07-24T00:39:22;99801.31;;;20.76;75.80
56241;BME280;42155;53.096;23.226;2022-07-24T00:41:23;99794.25;;;20.75;75.98
56241;BME280;42155;53.096;23.226;2022-07-24T00:43:23;99773.72;;;20.53;75.91
56241;BME280;42155;53.096;23.226;2022-07-24T00:45:24;99789.31;;;20.57;76.38
56241;BME280;42155;53.096;23.226;2022-07-24T00:47:24;99798.47;;;20.63;76.09
56241;BME280;42155;53.096;23.226;2022-07-24T00:49:24;99789.16;;;20.66;76.26
56241;BME280;42155;53.096;23.226;2022-07-24T00:51:25;99792.13;;;20.71;75.95
56241;BME280;42155;53.096;23.226;2022-07-24T00:53:25;99793.41;;;20.75;76.18
56241;BME280;42155;53.096;23.226;2022-07-24T00:55:26;99783.06;;;20.78;75.58
56241;BME280;42155;53.096;23.226;2022-07-24T00:57:27;99789.94;;;20.81;75.77
56241;BME280;42155;53.096;23.226;2022-07-24T00:59:27;99793.47;;;20.81;75.75
56241;BME280;42155;53.096;23.226;2022-07-24T01:01:28;99785.97;;;20.77;75.61
56241;BME280;42155;53.096;23.226;2022-07-24T01:03:29;99786.16;;;20.75;75.90
56241;BME280;42155;53.096;23.226;2022-07-24T01:05:29;99793.97;;;20.70;76.39
56241;BME280;42155;53.096;23.226;2022-07-24T01:07:29;99767.03;;;20.49;76.23
56241;BME280;42155;53.096;23.226;2022-07-24T01:09:30;99790.59;;;20.62;76.55
56241;BME280;42155;53.096;23.226;2022-07-24T01:11:31;99782.50;;;20.62;76.30
56241;BME280;42155;53.096;23.226;2022-07-24T01:13:31;99792.44;;;20.61;76.25
56241;BME280;42155;53.096;23.226;2022-07-24T01:15:32;99778.69;;;20.56;76.43
56241;BME280;42155;53.096;23.226;2022-07-24T01:17:35;99790.31;;;20.56;76.53
56241;BME280;42155;53.096;23.226;2022-07-24T01:19:36;99781.81;;;20.53;76.83
56241;BME280;42155;53.096;23.226;2022-07-24T01:21:36;99774.75;;;20.37;77.01
56241;BME280;42155;53.096;23.226;2022-07-24T01:23:37;99782.19;;;20.35;77.54
56241;BME280;42155;53.096;23.226;2022-07-24T01:25:37;99796.25;;;20.30;77.56
56241;BME280;42155;53.096;23.226;2022-07-24T01:27:38;99763.50;;;20.12;77.73
56241;BME280;42155;53.096;23.226;2022-07-24T01:29:38;99791.03;;;20.29;77.84
56241;BME280;42155;53.096;23.226;2022-07-24T01:31:38;99787.91;;;20.25;77.90
56241;BME280;42155;53.096;23.226;2022-07-24T01:33:39;99782.88;;;20.22;78.35
56241;BME280;42155;53.096;23.226;2022-07-24T01:35:40;99788.28;;;20.22;78.44
56241;BME280;42155;53.096;23.226;2022-07-24T01:37:41;99776.47;;;20.23;78.51
56241;BME280;42155;53.096;23.226;2022-07-24T01:39:41;99781.28;;;20.28;78.21
56241;BME280;42155;53.096;23.226;2022-07-24T01:41:41;99784.06;;;20.34;78.04
56241;BME280;42155;53.096;23.226;2022-07-24T01:43:42;99783.66;;;20.38;78.24
56241;BME280;42155;53.096;23.226;2022-07-24T01:45:42;99790.75;;;20.39;78.24
56241;BME280;42155;53.096;23.226;2022-07-24T01:47:43;99786.34;;;20.38;78.07
56241;BME280;42155;53.096;23.226;2022-07-24T01:49:43;99783.41;;;20.32;78.66
56241;BME280;42155;53.096;23.226;2022-07-24T01:51:43;99774.69;;;20.30;78.58
56241;BME280;42155;53.096;23.226;2022-07-24T01:53:44;99772.63;;;20.32;78.71
56241;BME280;42155;53.096;23.226;2022-07-24T01:55:44;99769.31;;;20.30;78.66
56241;BME280;42155;53.096;23.226;2022-07-24T01:57:44;99762.16;;;20.23;79.00
56241;BME280;42155;53.096;23.226;2022-07-24T01:59:45;99764.13;;;20.14;79.68
56241;BME280;42155;53.096;23.226;2022-07-24T02:01:46;99759.50;;;20.08;79.70
56241;BME280;42155;53.096;23.226;2022-07-24T02:03:46;99759.34;;;19.95;80.00
56241;BME280;42155;53.096;23.226;2022-07-24T02:05:46;99767.63;;;19.93;80.38
56241;BME280;42155;53.096;23.226;2022-07-24T02:07:55;99752.78;;;19.82;80.94
56241;BME280;42155;53.096;23.226;2022-07-24T02:09:55;99766.88;;;19.99;80.53
56241;BME280;42155;53.096;23.226;2022-07-24T02:11:56;99761.13;;;20.02;80.39
56241;BME280;42155;53.096;23.226;2022-07-24T02:13:56;99772.81;;;19.95;81.02
56241;BME280;42155;53.096;23.226;2022-07-24T02:15:56;99770.13;;;19.95;81.12
56241;BME280;42155;53.096;23.226;2022-07-24T02:17:58;99767.63;;;19.93;81.14
56241;BME280;42155;53.096;23.226;2022-07-24T02:19:59;99773.84;;;19.94;81.28
56241;BME280;42155;53.096;23.226;2022-07-24T02:22:00;99784.69;;;20.00;81.28
56241;BME280;42155;53.096;23.226;2022-07-24T02:24:00;99779.41;;;20.07;80.70
56241;BME280;42155;53.096;23.226;2022-07-24T02:26:01;99791.28;;;20.13;80.49
56241;BME280;42155;53.096;23.226;2022-07-24T02:28:02;99780.69;;;20.11;80.50
56241;BME280;42155;53.096;23.226;2022-07-24T02:30:07;99779.78;;;20.04;81.16
56241;BME280;42155;53.096;23.226;2022-07-24T02:32:08;99777.19;;;19.96;80.78
56241;BME280;42155;53.096;23.226;2022-07-24T02:34:09;99785.00;;;19.91;81.68
56241;BME280;42155;53.096;23.226;2022-07-24T02:36:09;99773.88;;;19.79;81.90
56241;BME280;42155;53.096;23.226;2022-07-24T02:38:09;99771.47;;;19.69;82.06
56241;BME280;42155;53.096;23.226;2022-07-24T02:40:11;99787.34;;;19.79;81.93
56241;BME280;42155;53.096;23.226;2022-07-24T02:42:12;99789.00;;;19.80;82.08
56241;BME280;42155;53.096;23.226;2022-07-24T02:44:12;99787.97;;;19.81;82.03
56241;BME280;42155;53.096;23.226;2022-07-24T02:46:12;99785.22;;;19.74;82.11
56241;BME280;42155;53.096;23.226;2022-07-24T02:48:13;99790.41;;;19.61;82.41
56241;BME280;42155;53.096;23.226;2022-07-24T02:50:13;99778.47;;;19.41;82.53
56241;BME280;42155;53.096;23.226;2022-07-24T02:52:14;99791.66;;;19.36;81.99
56241;BME280;42155;53.096;23.226;2022-07-24T02:54:14;99790.75;;;19.28;81.69
56241;BME280;42155;53.096;23.226;2022-07-24T02:56:14;99793.50;;;19.20;81.30
56241;BME280;42155;53.096;23.226;2022-07-24T02:58:15;99786.72;;;19.10;81.35
56241;BME280;42155;53.096;23.226;2022-07-24T03:00:16;99806.31;;;19.18;80.74
56241;BME280;42155;53.096;23.226;2022-07-24T03:02:18;99802.88;;;19.10;80.53
56241;BME280;42155;53.096;23.226;2022-07-24T03:04:18;99804.50;;;18.96;80.93
56241;BME280;42155;53.096;23.226;2022-07-24T03:06:18;99814.78;;;18.92;80.52
56241;BME280;42155;53.096;23.226;2022-07-24T03:08:18;99809.94;;;18.88;80.32
56241;BME280;42155;53.096;23.226;2022-07-24T03:10:19;99816.88;;;18.82;80.71
56241;BME280;42155;53.096;23.226;2022-07-24T03:12:19;99825.84;;;18.74;80.67
56241;BME280;42155;53.096;23.226;2022-07-24T03:14:19;99831.22;;;18.66;80.57
56241;BME280;42155;53.096;23.226;2022-07-24T03:16:20;99829.63;;;18.57;80.55
56241;BME280;42155;53.096;23.226;2022-07-24T03:18:20;99833.31;;;18.56;80.45
56241;BME280;42155;53.096;23.226;2022-07-24T03:20:22;99827.84;;;18.49;80.08
56241;BME280;42155;53.096;23.226;2022-07-24T03:26:33;99844.78;;;18.50;79.99
56241;BME280;42155;53.096;23.226;2022-07-24T03:28:34;99844.06;;;18.56;80.02
56241;BME280;42155;53.096;23.226;2022-07-24T03:30:34;99838.34;;;18.59;80.37
56241;BME280;42155;53.096;23.226;2022-07-24T03:32:35;99833.63;;;18.61;79.16
56241;BME280;42155;53.096;23.226;2022-07-24T03:34:35;99849.94;;;18.60;79.24
56241;BME280;42155;53.096;23.226;2022-07-24T03:36:36;99858.88;;;18.52;79.30
56241;BME280;42155;53.096;23.226;2022-07-24T03:38:36;99853.88;;;18.49;79.36
56241;BME280;42155;53.096;23.226;2022-07-24T03:40:36;99860.25;;;18.48;79.34
56241;BME280;42155;53.096;23.226;2022-07-24T03:42:37;99857.56;;;18.48;79.51
56241;BME280;42155;53.096;23.226;2022-07-24T03:44:37;99857.22;;;18.51;79.03
56241;BME280;42155;53.096;23.226;2022-07-24T03:46:37;99852.19;;;18.48;79.14
56241;BME280;42155;53.096;23.226;2022-07-24T03:48:38;99856.06;;;18.45;78.72
56241;BME280;42155;53.096;23.226;2022-07-24T03:50:38;99842.06;;;18.27;78.60
56241;BME280;42155;53.096;23.226;2022-07-24T03:52:38;99831.25;;;18.12;78.80
56241;BME280;42155;53.096;23.226;2022-07-24T03:54:39;99859.44;;;18.39;77.97
56241;BME280;42155;53.096;23.226;2022-07-24T03:56:39;99853.91;;;18.41;77.58
56241;BME280;42155;53.096;23.226;2022-07-24T03:58:39;99857.44;;;18.41;76.93
56241;BME280;42155;53.096;23.226;2022-07-24T04:00:40;99862.00;;;18.32;76.87
56241;BME280;42155;53.096;23.226;2022-07-24T04:02:40;99858.72;;;18.22;76.99
56241;BME280;42155;53.096;23.226;2022-07-24T04:04:41;99869.09;;;18.25;76.76
56241;BME280;42155;53.096;23.226;2022-07-24T04:06:42;99879.72;;;18.19;76.39
56241;BME280;42155;53.096;23.226;2022-07-24T04:08:42;99868.16;;;18.10;75.94
56241;BME280;42155;53.096;23.226;2022-07-24T04:10:42;99867.63;;;18.15;75.46
56241;BME280;42155;53.096;23.226;2022-07-24T04:12:43;99880.88;;;18.16;75.79
56241;BME280;42155;53.096;23.226;2022-07-24T04:14:43;99875.50;;;18.16;75.33
56241;BME280;42155;53.096;23.226;2022-07-24T04:16:43;99873.22;;;18.05;75.42
56241;BME280;42155;53.096;23.226;2022-07-24T04:18:44;99868.69;;;18.05;75.62
56241;BME280;42155;53.096;23.226;2022-07-24T04:20:44;99847.75;;;17.93;75.26
56241;BME280;42155;53.096;23.226;2022-07-24T04:22:45;99854.44;;;17.97;74.98
56241;BME280;42155;53.096;23.226;2022-07-24T04:24:45;99879.41;;;18.14;74.99
56241;BME280;42155;53.096;23.226;2022-07-24T04:26:45;99884.25;;;18.18;74.86
56241;BME280;42155;53.096;23.226;2022-07-24T04:28:46;99877.34;;;18.24;74.63
56241;BME280;42155;53.096;23.226;2022-07-24T04:30:46;99880.84;;;18.24;74.70
56241;BME280;42155;53.096;23.226;2022-07-24T04:32:46;99879.50;;;18.28;74.57
56241;BME280;42155;53.096;23.226;2022-07-24T04:34:47;99866.41;;;18.25;74.50
56241;BME280;42155;53.096;23.226;2022-07-24T04:36:47;99870.69;;;18.43;74.50
56241;BME280;42155;53.096;23.226;2022-07-24T04:38:47;99829.84;;;18.16;74.03
56241;BME280;42155;53.096;23.226;2022-07-24T04:40:48;99876.38;;;18.48;73.86
56241;BME280;42155;53.096;23.226;2022-07-24T04:42:48;99874.22;;;18.43;74.04
56241;BME280;42155;53.096;23.226;2022-07-24T04:44:48;99867.34;;;18.41;74.30
56241;BME280;42155;53.096;23.226;2022-07-24T04:46:49;99866.16;;;18.43;74.38
56241;BME280;42155;53.096;23.226;2022-07-24T04:48:49;99874.06;;;18.45;73.87
56241;BME280;42155;53.096;23.226;2022-07-24T04:50:50;99868.69;;;18.45;73.80
56241;BME280;42155;53.096;23.226;2022-07-24T04:52:50;99872.31;;;18.52;73.66
56241;BME280;42155;53.096;23.226;2022-07-24T04:54:50;99880.97;;;18.62;73.70
56241;BME280;42155;53.096;23.226;2022-07-24T04:56:51;99874.41;;;18.73;73.24
56241;BME280;42155;53.096;23.226;2022-07-24T04:58:51;99870.16;;;18.78;73.14
56241;BME280;42155;53.096;23.226;2022-07-24T05:00:51;99864.53;;;19.11;72.37
56241;BME280;42155;53.096;23.226;2022-07-24T05:02:52;99879.56;;;19.43;71.33
56241;BME280;42155;53.096;23.226;2022-07-24T05:04:52;99881.34;;;19.51;71.37
56241;BME280;42155;53.096;23.226;2022-07-24T05:06:52;99885.66;;;19.60;71.29
56241;BME280;42155;53.096;23.226;2022-07-24T05:08:53;99886.78;;;20.10;69.57
56241;BME280;42155;53.096;23.226;2022-07-24T05:10:53;99882.59;;;20.73;68.28
56241;BME280;42155;53.096;23.226;2022-07-24T05:12:53;99875.88;;;21.05;66.53
56241;BME280;42155;53.096;23.226;2022-07-24T05:14:54;99886.44;;;21.07;66.26
56241;BME280;42155;53.096;23.226;2022-07-24T05:16:54;99880.69;;;21.10;65.98
56241;BME280;42155;53.096;23.226;2022-07-24T05:18:54;99880.22;;;21.06;65.89
56241;BME280;42155;53.096;23.226;2022-07-24T05:20:55;99872.53;;;21.03;65.92
56241;BME280;42155;53.096;23.226;2022-07-24T05:22:55;99875.94;;;20.91;65.76
56241;BME280;42155;53.096;23.226;2022-07-24T05:24:55;99879.66;;;20.90;65.35
56241;BME280;42155;53.096;23.226;2022-07-24T05:26:56;99886.47;;;20.85;64.83
56241;BME280;42155;53.096;23.226;2022-07-24T05:28:58;99875.81;;;20.99;64.19
56241;BME280;42155;53.096;23.226;2022-07-24T05:30:58;99852.91;;;21.16;62.65
56241;BME280;42155;53.096;23.226;2022-07-24T05:32:58;99880.81;;;21.45;62.08
56241;BME280;42155;53.096;23.226;2022-07-24T05:34:59;99882.22;;;21.41;61.54
56241;BME280;42155;53.096;23.226;2022-07-24T05:36:59;99883.34;;;21.53;61.34
56241;BME280;42155;53.096;23.226;2022-07-24T05:38:59;99865.09;;;21.55;60.62
56241;BME280;42155;53.096;23.226;2022-07-24T05:41:00;99883.66;;;21.65;60.55
56241;BME280;42155;53.096;23.226;2022-07-24T05:43:00;99889.75;;;21.73;60.72
56241;BME280;42155;53.096;23.226;2022-07-24T05:45:03;99885.56;;;21.71;60.03
56241;BME280;42155;53.096;23.226;2022-07-24T05:47:04;99892.19;;;21.68;60.05
56241;BME280;42155;53.096;23.226;2022-07-24T05:49:05;99888.13;;;21.85;59.66
56241;BME280;42155;53.096;23.226;2022-07-24T05:51:05;99883.44;;;22.29;57.85
56241;BME280;42155;53.096;23.226;2022-07-24T05:53:05;99885.84;;;22.72;57.33
56241;BME280;42155;53.096;23.226;2022-07-24T05:55:07;99867.19;;;23.10;56.40
56241;BME280;42155;53.096;23.226;2022-07-24T05:57:08;99884.09;;;23.78;54.72
56241;BME280;42155;53.096;23.226;2022-07-24T05:59:08;99884.84;;;23.99;54.57
56241;BME280;42155;53.096;23.226;2022-07-24T06:01:08;99884.38;;;24.28;53.82
56241;BME280;42155;53.096;23.226;2022-07-24T06:03:09;99887.91;;;24.29;52.48
56241;BME280;42155;53.096;23.226;2022-07-24T06:05:09;99864.75;;;24.26;52.79
56241;BME280;42155;53.096;23.226;2022-07-24T06:07:10;99874.09;;;24.44;52.18
56241;BME280;42155;53.096;23.226;2022-07-24T06:09:10;99872.28;;;24.24;52.78
56241;BME280;42155;53.096;23.226;2022-07-24T06:11:10;99874.38;;;24.22;52.44
56241;BME280;42155;53.096;23.226;2022-07-24T06:13:11;99884.44;;;24.02;53.04
56241;BME280;42155;53.096;23.226;2022-07-24T06:15:12;99871.53;;;23.97;53.25
56241;BME280;42155;53.096;23.226;2022-07-24T06:17:12;99874.44;;;24.09;52.83
56241;BME280;42155;53.096;23.226;2022-07-24T06:19:12;99873.47;;;23.77;53.00
56241;BME280;42155;53.096;23.226;2022-07-24T06:21:13;99876.81;;;23.26;53.74
56241;BME280;42155;53.096;23.226;2022-07-24T06:23:13;99884.59;;;22.61;55.13
56241;BME280;42155;53.096;23.226;2022-07-24T06:25:14;99885.34;;;22.07;56.67
56241;BME280;42155;53.096;23.226;2022-07-24T06:27:14;99885.66;;;21.56;57.58
56241;BME280;42155;53.096;23.226;2022-07-24T06:29:14;99880.16;;;21.21;58.75
56241;BME280;42155;53.096;23.226;2022-07-24T06:31:15;99885.44;;;21.08;59.96
56241;BME280;42155;53.096;23.226;2022-07-24T06:33:15;99893.47;;;21.23;59.56
56241;BME280;42155;53.096;23.226;2022-07-24T06:35:15;99891.50;;;21.31;59.92
56241;BME280;42155;53.096;23.226;2022-07-24T06:37:16;99892.00;;;21.42;59.89
56241;BME280;42155;53.096;23.226;2022-07-24T06:39:17;99903.78;;;21.62;60.09
56241;BME280;42155;53.096;23.226;2022-07-24T06:41:17;99894.97;;;21.81;58.64
56241;BME280;42155;53.096;23.226;2022-07-24T06:43:18;99902.53;;;22.27;57.71
56241;BME280;42155;53.096;23.226;2022-07-24T06:45:18;99879.41;;;22.73;56.17
56241;BME280;42155;53.096;23.226;2022-07-24T06:47:19;99894.09;;;23.11;55.65
56241;BME280;42155;53.096;23.226;2022-07-24T06:49:19;99878.69;;;23.25;55.36
56241;BME280;42155;53.096;23.226;2022-07-24T06:51:19;99905.75;;;23.19;55.05
56241;BME280;42155;53.096;23.226;2022-07-24T06:53:20;99905.31;;;23.15;55.75
56241;BME280;42155;53.096;23.226;2022-07-24T06:55:21;99898.25;;;23.27;53.73
56241;BME280;42155;53.096;23.226;2022-07-24T06:57:21;99906.16;;;23.29;54.09
56241;BME280;42155;53.096;23.226;2022-07-24T06:59:22;99903.88;;;23.19;53.57
56241;BME280;42155;53.096;23.226;2022-07-24T07:01:22;99900.31;;;23.38;53.33
56241;BME280;42155;53.096;23.226;2022-07-24T07:03:22;99908.03;;;23.55;52.46
56241;BME280;42155;53.096;23.226;2022-07-24T07:05:23;99886.56;;;23.60;51.63
56241;BME280;42155;53.096;23.226;2022-07-24T07:07:23;99902.84;;;23.80;50.97
56241;BME280;42155;53.096;23.226;2022-07-24T07:09:23;99885.31;;;23.82;51.44
56241;BME280;42155;53.096;23.226;2022-07-24T07:11:24;99901.28;;;24.24;50.75
56241;BME280;42155;53.096;23.226;2022-07-24T07:13:24;99898.47;;;24.57;50.10
56241;BME280;42155;53.096;23.226;2022-07-24T07:15:24;99887.19;;;24.60;48.64
56241;BME280;42155;53.096;23.226;2022-07-24T07:17:25;99889.81;;;24.15;49.15
56241;BME280;42155;53.096;23.226;2022-07-24T07:19:26;99903.19;;;24.10;50.20
56241;BME280;42155;53.096;23.226;2022-07-24T07:21:26;99903.75;;;24.38;50.38
56241;BME280;42155;53.096;23.226;2022-07-24T07:23:26;99904.72;;;24.57;50.50
56241;BME280;42155;53.096;23.226;2022-07-24T07:25:27;99902.28;;;24.81;50.20
56241;BME280;42155;53.096;23.226;2022-07-24T07:27:27;99903.81;;;24.70;49.48
56241;BME280;42155;53.096;23.226;2022-07-24T07:29:27;99908.41;;;24.70;49.29
56241;BME280;42155;53.096;23.226;2022-07-24T07:31:30;99913.25;;;24.61;48.75
56241;BME280;42155;53.096;23.226;2022-07-24T07:33:30;99914.31;;;24.53;48.40
56241;BME280;42155;53.096;23.226;2022-07-24T07:35:30;99909.78;;;24.47;49.42
56241;BME280;42155;53.096;23.226;2022-07-24T07:37:31;99910.59;;;24.48;49.65
56241;BME280;42155;53.096;23.226;2022-07-24T07:39:31;99919.41;;;24.30;49.65
56241;BME280;42155;53.096;23.226;2022-07-24T07:41:32;99922.56;;;24.27;50.79
56241;BME280;42155;53.096;23.226;2022-07-24T07:43:32;99914.00;;;24.36;50.59
56241;BME280;42155;53.096;23.226;2022-07-24T07:45:32;99912.31;;;24.42;51.20
56241;BME280;42155;53.096;23.226;2022-07-24T07:47:36;99913.69;;;24.58;49.26
56241;BME280;42155;53.096;23.226;2022-07-24T07:49:36;99913.06;;;24.56;49.48
56241;BME280;42155;53.096;23.226;2022-07-24T07:51:36;99912.53;;;24.41;49.01
56241;BME280;42155;53.096;23.226;2022-07-24T07:53:37;99909.59;;;24.42;49.03
56241;BME280;42155;53.096;23.226;2022-07-24T07:55:37;99915.19;;;24.47;49.61
56241;BME280;42155;53.096;23.226;2022-07-24T07:57:38;99918.13;;;24.46;48.73
56241;BME280;42155;53.096;23.226;2022-07-24T07:59:40;99904.44;;;24.14;49.42
56241;BME280;42155;53.096;23.226;2022-07-24T08:01:40;99924.47;;;24.13;49.24
56241;BME280;42155;53.096;23.226;2022-07-24T08:03:41;99923.22;;;24.09;49.58
56241;BME280;42155;53.096;23.226;2022-07-24T08:05:41;99919.06;;;24.13;50.84
56241;BME280;42155;53.096;23.226;2022-07-24T08:07:41;99909.38;;;24.30;51.51
56241;BME280;42155;53.096;23.226;2022-07-24T08:09:42;99909.53;;;24.49;50.21
56241;BME280;42155;53.096;23.226;2022-07-24T08:11:42;99913.06;;;24.56;50.12
56241;BME280;42155;53.096;23.226;2022-07-24T08:13:42;99910.97;;;24.58;48.97
56241;BME280;42155;53.096;23.226;2022-07-24T08:15:43;99922.28;;;24.48;49.51
56241;BME280;42155;53.096;23.226;2022-07-24T08:17:44;99917.69;;;24.35;49.01
56241;BME280;42155;53.096;23.226;2022-07-24T08:19:44;99920.66;;;24.41;49.88
56241;BME280;42155;53.096;23.226;2022-07-24T08:21:45;99919.28;;;24.63;49.36
56241;BME280;42155;53.096;23.226;2022-07-24T08:23:45;99922.53;;;24.85;48.78
56241;BME280;42155;53.096;23.226;2022-07-24T08:25:46;99917.16;;;24.72;48.23
56241;BME280;42155;53.096;23.226;2022-07-24T08:27:46;99933.31;;;24.60;49.86
56241;BME280;42155;53.096;23.226;2022-07-24T08:29:47;99922.41;;;24.67;48.86
56241;BME280;42155;53.096;23.226;2022-07-24T08:31:47;99928.84;;;24.79;48.25
56241;BME280;42155;53.096;23.226;2022-07-24T08:33:47;99931.75;;;24.77;49.21
56241;BME280;42155;53.096;23.226;2022-07-24T08:35:48;99932.13;;;24.87;49.05
56241;BME280;42155;53.096;23.226;2022-07-24T08:37:48;99934.06;;;24.74;48.33
56241;BME280;42155;53.096;23.226;2022-07-24T08:39:48;99921.81;;;24.58;48.67
56241;BME280;42155;53.096;23.226;2022-07-24T08:41:49;99940.94;;;24.76;48.90
56241;BME280;42155;53.096;23.226;2022-07-24T08:43:49;99944.22;;;24.92;48.39
56241;BME280;42155;53.096;23.226;2022-07-24T08:45:51;99955.03;;;24.98;48.65
56241;BME280;42155;53.096;23.226;2022-07-24T08:47:55;99943.19;;;24.86;47.86
56241;BME280;42155;53.096;23.226;2022-07-24T08:49:57;99936.16;;;24.72;48.98
56241;BME280;42155;53.096;23.226;2022-07-24T08:51:59;99959.22;;;24.94;48.69
56241;BME280;42155;53.096;23.226;2022-07-24T08:54:00;99960.41;;;25.05;49.01
56241;BME280;42155;53.096;23.226;2022-07-24T08:56:00;99954.09;;;25.18;48.84
56241;BME280;42155;53.096;23.226;2022-07-24T08:58:01;99943.69;;;25.14;48.31
56241;BME280;42155;53.096;23.226;2022-07-24T09:00:02;99944.06;;;25.18;48.68
56241;BME280;42155;53.096;23.226;2022-07-24T09:02:03;99965.38;;;25.21;49.00
56241;BME280;42155;53.096;23.226;2022-07-24T09:04:03;99957.50;;;25.06;48.99
56241;BME280;42155;53.096;23.226;2022-07-24T09:06:07;99960.47;;;24.98;48.91
56241;BME280;42155;53.096;23.226;2022-07-24T09:08:09;99958.63;;;24.85;50.12
56241;BME280;42155;53.096;23.226;2022-07-24T09:10:13;99954.97;;;24.73;49.12
56241;BME280;42155;53.096;23.226;2022-07-24T09:12:16;99960.44;;;24.53;50.11
56241;BME280;42155;53.096;23.226;2022-07-24T09:14:16;99955.66;;;24.49;50.13
56241;BME280;42155;53.096;23.226;2022-07-24T09:16:22;99951.47;;;24.53;50.56
56241;BME280;42155;53.096;23.226;2022-07-24T09:18:40;99958.00;;;24.45;51.03
56241;BME280;42155;53.096;23.226;2022-07-24T09:20:40;99964.66;;;24.43;51.64
56241;BME280;42155;53.096;23.226;2022-07-24T09:22:41;99959.84;;;24.45;51.63
56241;BME280;42155;53.096;23.226;2022-07-24T09:24:42;99962.81;;;24.23;51.84
56241;BME280;42155;53.096;23.226;2022-07-24T09:27:00;99963.25;;;24.07;51.26
56241;BME280;42155;53.096;23.226;2022-07-24T09:29:01;99972.47;;;23.99;52.34
56241;BME280;42155;53.096;23.226;2022-07-24T09:31:01;99960.19;;;23.90;52.94
56241;BME280;42155;53.096;23.226;2022-07-24T09:33:05;99961.59;;;24.06;52.05
56241;BME280;42155;53.096;23.226;2022-07-24T09:35:06;99965.78;;;24.08;52.27
56241;BME280;42155;53.096;23.226;2022-07-24T09:37:07;99964.09;;;23.94;52.50
56241;BME280;42155;53.096;23.226;2022-07-24T09:39:08;99958.09;;;23.72;52.64
56241;BME280;42155;53.096;23.226;2022-07-24T09:41:08;99970.81;;;23.65;53.10
56241;BME280;42155;53.096;23.226;2022-07-24T09:43:29;99964.53;;;23.58;53.20
56241;BME280;42155;53.096;23.226;2022-07-24T09:45:51;99957.44;;;23.63;52.96
56241;BME280;42155;53.096;23.226;2022-07-24T09:47:52;99964.97;;;23.75;53.59
56241;BME280;42155;53.096;23.226;2022-07-24T09:49:54;99967.88;;;23.86;53.22
56241;BME280;42155;53.096;23.226;2022-07-24T09:54:05;99976.63;;;23.49;54.07
56241;BME280;42155;53.096;23.226;2022-07-24T09:58:16;99974.25;;;23.19;54.55
56241;BME280;42155;53.096;23.226;2022-07-24T10:00:17;99975.91;;;23.07;54.91
56241;BME280;42155;53.096;23.226;2022-07-24T10:02:22;99976.91;;;22.93;55.40
56241;BME280;42155;53.096;23.226;2022-07-24T10:04:23;99978.31;;;22.88;56.16
56241;BME280;42155;53.096;23.226;2022-07-24T10:06:28;99979.81;;;22.91;56.09
56241;BME280;42155;53.096;23.226;2022-07-24T10:08:28;99963.09;;;22.87;56.95
56241;BME280;42155;53.096;23.226;2022-07-24T10:10:31;99970.22;;;22.88;56.42
56241;BME280;42155;53.096;23.226;2022-07-24T10:12:33;99972.34;;;23.00;57.20
56241;BME280;42155;53.096;23.226;2022-07-24T10:14:33;99977.56;;;23.08;56.97
56241;BME280;42155;53.096;23.226;2022-07-24T10:16:41;99972.81;;;23.23;57.02
56241;BME280;42155;53.096;23.226;2022-07-24T10:21:03;99977.56;;;23.15;56.29
56241;BME280;42155;53.096;23.226;2022-07-24T10:23:07;99982.34;;;23.06;57.13
56241;BME280;42155;53.096;23.226;2022-07-24T10:25:08;99983.66;;;23.23;57.03
56241;BME280;42155;53.096;23.226;2022-07-24T10:29:24;99982.38;;;23.19;56.13
56241;BME280;42155;53.096;23.226;2022-07-24T10:31:25;99983.16;;;23.00;56.56
56241;BME280;42155;53.096;23.226;2022-07-24T10:33:26;99972.72;;;22.90;56.87
56241;BME280;42155;53.096;23.226;2022-07-24T10:35:28;99986.91;;;22.99;55.60
56241;BME280;42155;53.096;23.226;2022-07-24T10:42:04;99984.94;;;23.54;55.29
56241;BME280;42155;53.096;23.226;2022-07-24T10:46:12;99979.94;;;23.51;55.78
56241;BME280;42155;53.096;23.226;2022-07-24T10:50:21;99983.09;;;23.74;54.30
56241;BME280;42155;53.096;23.226;2022-07-24T10:52:25;99980.19;;;23.82;54.01
56241;BME280;42155;53.096;23.226;2022-07-24T10:54:25;99979.78;;;23.72;54.14